Time;durP1;ratioP1;P1;durP2;ratioP2;P2;SDS_P1;SDS_P2;PMS_P1;PMS_P2;Temp;Humidity;BMP_temperature;BMP_pressure;BME280_temperature;BME280_humidity;BME280_pressure;Samples;Min_cycle;Max_cycle;Signal;HPM_P1;HPM_P2
2022/03/01 00:01:37;;;;;;;14.57;9.05;;;3.60;96.20;;;;;;5033025;28;20212;-88
2022/03/01 00:04:04;;;;;;;15.30;9.70;;;3.60;96.30;;;;;;5029938;28;20218;-86
2022/03/01 00:06:31;;;;;;;13.43;9.60;;;3.60;96.50;;;;;;5034733;28;20281;-86
2022/03/01 00:08:58;;;;;;;17.48;10.30;;;3.10;96.80;;;;;;5025638;28;20227;-87
2022/03/01 00:11:25;;;;;;;15.73;9.50;;;3.40;96.80;;;;;;5025009;28;20211;-87
2022/03/01 00:13:52;;;;;;;15.75;8.98;;;3.40;97.00;;;;;;5024375;28;20215;-88
2022/03/01 00:16:20;;;;;;;16.40;10.02;;;3.60;97.10;;;;;;5024898;28;20229;-88
2022/03/01 00:18:47;;;;;;;17.35;9.40;;;3.40;96.40;;;;;;5024918;28;20295;-89
2022/03/01 00:21:14;;;;;;;14.60;9.13;;;3.40;96.40;;;;;;5020452;28;20204;-88
2022/03/01 00:23:41;;;;;;;20.13;10.27;;;3.40;96.50;;;;;;5033362;28;20242;-87
2022/03/01 00:26:09;;;;;;;14.85;8.82;;;3.30;97.00;;;;;;5027586;28;20339;-87
2022/03/01 00:28:36;;;;;;;15.93;9.10;;;3.10;97.10;;;;;;5029283;28;20205;-86
2022/03/01 00:31:03;;;;;;;14.77;8.60;;;3.40;96.70;;;;;;5027686;28;20197;-87
2022/03/01 00:33:32;;;;;;;15.93;9.02;;;3.10;96.50;;;;;;5027032;28;20255;-88
2022/03/01 00:35:59;;;;;;;15.32;9.10;;;3.30;96.60;;;;;;5026636;28;20208;-88
2022/03/01 00:38:26;;;;;;;16.15;8.98;;;3.00;96.50;;;;;;5034185;28;20697;-86
2022/03/01 00:40:53;;;;;;;16.80;8.45;;;2.80;96.20;;;;;;5035093;28;20275;-87
2022/03/01 00:43:21;;;;;;;12.48;7.85;;;2.90;96.00;;;;;;5039684;28;20219;-86
2022/03/01 00:45:47;;;;;;;13.43;7.70;;;3.10;96.20;;;;;;5034624;28;20219;-89
2022/03/01 00:48:14;;;;;;;11.75;7.78;;;2.90;96.00;;;;;;5041869;28;20240;-85
2022/03/01 00:50:43;;;;;;;13.40;7.70;;;3.30;95.70;;;;;;5041913;28;20227;-86
2022/03/01 00:53:11;;;;;;;15.55;7.82;;;3.00;95.60;;;;;;5038566;28;20227;-87
2022/03/01 00:55:38;;;;;;;14.32;8.68;;;3.00;95.80;;;;;;5041599;28;20208;-88
2022/03/01 00:58:05;;;;;;;14.75;8.05;;;3.10;95.70;;;;;;5035442;28;20258;-87
2022/03/01 01:00:33;;;;;;;18.85;7.88;;;3.20;96.10;;;;;;5033882;28;20234;-87
2022/03/01 01:03:00;;;;;;;11.85;7.00;;;3.00;95.80;;;;;;5032847;28;20232;-87
2022/03/01 01:05:27;;;;;;;14.77;8.60;;;2.90;95.60;;;;;;5031982;28;20624;-87
2022/03/01 01:07:57;;;;;;;14.70;8.60;;;3.20;95.70;;;;;;5030771;28;20214;-88
2022/03/01 01:10:24;;;;;;;14.50;8.38;;;2.40;95.50;;;;;;5031220;28;20259;-86
2022/03/01 01:12:51;;;;;;;11.13;7.28;;;2.80;96.30;;;;;;5035867;28;20227;-88
2022/03/01 01:15:19;;;;;;;14.15;8.00;;;2.90;96.00;;;;;;5033976;28;20208;-89
2022/03/01 01:17:46;;;;;;;15.90;7.95;;;2.90;95.70;;;;;;5031507;28;20272;-87
2022/03/01 01:20:15;;;;;;;11.45;6.97;;;2.90;95.80;;;;;;5032101;28;20220;-88
2022/03/01 01:22:42;;;;;;;13.13;8.55;;;2.70;95.40;;;;;;5030372;28;20267;-87
2022/03/01 01:25:13;;;;;;;11.98;6.95;;;2.80;96.00;;;;;;5028474;28;20215;-88
2022/03/01 01:27:41;;;;;;;14.05;7.75;;;2.70;96.00;;;;;;5035660;28;20220;-87
2022/03/01 01:30:10;;;;;;;21.20;8.88;;;2.80;96.20;;;;;;5061306;23;20239;-86
2022/03/01 01:32:37;;;;;;;18.08;8.23;;;2.70;96.00;;;;;;5043198;28;20290;-85
2022/03/01 01:35:06;;;;;;;13.00;7.43;;;2.70;96.00;;;;;;5042091;28;20211;-85
2022/03/01 01:37:33;;;;;;;15.27;8.13;;;2.80;96.20;;;;;;5041184;28;20207;-85
2022/03/01 01:40:00;;;;;;;13.57;7.55;;;2.70;96.10;;;;;;5040911;28;20229;-85
2022/03/01 01:42:28;;;;;;;13.25;6.97;;;2.80;96.00;;;;;;5041162;28;20666;-85
2022/03/01 01:44:55;;;;;;;15.15;8.75;;;3.20;95.90;;;;;;5041385;28;20233;-85
2022/03/01 01:47:22;;;;;;;15.65;8.02;;;2.90;95.80;;;;;;5043494;28;20213;-86
2022/03/01 01:49:49;;;;;;;13.43;8.45;;;2.80;96.00;;;;;;5053986;28;20313;-85
2022/03/01 01:52:16;;;;;;;15.60;8.50;;;2.70;96.20;;;;;;5043793;28;20314;-85
2022/03/01 01:54:43;;;;;;;15.85;8.98;;;2.70;96.10;;;;;;5041139;28;20667;-85
2022/03/01 01:57:15;;;;;;;17.48;9.50;;;2.70;96.00;;;;;;5041980;28;20234;-85
2022/03/01 01:59:44;;;;;;;15.45;8.23;;;2.50;96.00;;;;;;5040778;28;20231;-85
2022/03/01 02:02:12;;;;;;;11.70;7.80;;;2.40;96.60;;;;;;5041043;28;20203;-86
2022/03/01 02:04:39;;;;;;;17.63;8.88;;;2.20;96.70;;;;;;5040215;28;20261;-86
2022/03/01 02:07:07;;;;;;;16.25;9.55;;;2.40;97.20;;;;;;5040332;28;20285;-86
2022/03/01 02:09:35;;;;;;;17.35;9.55;;;2.30;97.00;;;;;;5040372;28;20235;-86
2022/03/01 02:12:03;;;;;;;17.63;8.73;;;2.30;97.10;;;;;;5040360;28;20235;-86
2022/03/01 02:14:30;;;;;;;17.52;8.93;;;2.40;97.30;;;;;;5040768;28;20210;-87
2022/03/01 02:17:00;;;;;;;15.02;8.73;;;2.20;97.30;;;;;;5043097;28;20575;-87
2022/03/01 02:19:27;;;;;;;14.50;8.85;;;2.40;97.40;;;;;;5043531;28;20678;-87
2022/03/01 02:21:56;;;;;;;13.75;8.38;;;2.30;97.40;;;;;;5048471;28;20215;-86
2022/03/01 02:24:25;;;;;;;17.05;9.10;;;2.20;97.70;;;;;;5042907;28;20253;-87
2022/03/01 02:26:55;;;;;;;18.20;10.85;;;2.20;98.10;;;;;;5040499;28;20238;-87
2022/03/01 02:29:22;;;;;;;19.77;8.70;;;2.30;98.40;;;;;;5040301;28;20235;-86
2022/03/01 02:31:51;;;;;;;15.52;8.30;;;2.20;98.40;;;;;;5040609;28;20206;-87
2022/03/01 02:34:19;;;;;;;14.25;8.30;;;2.20;98.50;;;;;;5039811;28;20222;-86
2022/03/01 02:36:46;;;;;;;15.00;8.70;;;2.20;98.70;;;;;;5040470;28;20199;-86
2022/03/01 02:39:15;;;;;;;14.50;8.55;;;1.90;98.90;;;;;;5039388;28;20226;-86
2022/03/01 02:41:44;;;;;;;18.55;8.85;;;2.20;99.20;;;;;;5039785;28;20199;-86
2022/03/01 02:44:12;;;;;;;16.63;9.07;;;2.00;99.30;;;;;;5049109;28;20215;-87
2022/03/01 02:46:40;;;;;;;23.00;9.20;;;2.00;99.40;;;;;;5040937;28;20214;-86
2022/03/01 02:49:08;;;;;;;16.77;9.48;;;2.20;99.50;;;;;;5041737;28;20273;-86
2022/03/01 02:51:36;;;;;;;17.30;9.05;;;1.90;99.80;;;;;;5043383;28;20290;-85
2022/03/01 02:54:04;;;;;;;16.63;8.48;;;2.10;99.90;;;;;;5040940;28;20223;-87
2022/03/01 02:56:32;;;;;;;15.88;8.80;;;2.20;99.90;;;;;;5040528;28;20561;-85
2022/03/01 02:58:59;;;;;;;14.75;8.82;;;2.10;99.90;;;;;;5041223;28;20246;-85
2022/03/01 03:01:27;;;;;;;14.90;8.77;;;2.20;99.70;;;;;;5041025;28;20629;-85
2022/03/01 03:03:54;;;;;;;15.57;8.57;;;2.00;99.80;;;;;;5040827;28;20683;-85
2022/03/01 03:06:21;;;;;;;14.65;8.68;;;1.80;99.90;;;;;;5041109;28;20336;-85
2022/03/01 03:08:48;;;;;;;15.88;9.00;;;1.80;99.90;;;;;;5040844;28;20574;-85
2022/03/01 03:11:15;;;;;;;17.83;8.88;;;1.60;99.90;;;;;;5040577;28;20206;-85
2022/03/01 03:13:43;;;;;;;17.58;9.55;;;1.80;99.90;;;;;;5040733;28;20254;-86
2022/03/01 03:16:10;;;;;;;17.83;10.48;;;1.80;99.90;;;;;;5057123;28;20186;-86
2022/03/01 03:18:37;;;;;;;14.23;7.90;;;1.80;99.90;;;;;;5046638;28;20206;-86
2022/03/01 03:21:05;;;;;;;16.42;10.05;;;1.90;99.90;;;;;;5043890;28;20660;-86
2022/03/01 03:23:32;;;;;;;16.17;9.45;;;1.60;99.90;;;;;;5041689;28;20203;-86
2022/03/01 03:25:59;;;;;;;17.35;9.48;;;1.70;99.90;;;;;;5041247;28;20301;-86
2022/03/01 03:28:26;;;;;;;20.13;9.55;;;1.60;99.90;;;;;;5042771;28;20218;-86
2022/03/01 03:30:55;;;;;;;16.52;9.45;;;1.70;99.90;;;;;;5041382;28;20242;-86
2022/03/01 03:33:24;;;;;;;16.50;10.20;;;1.90;99.90;;;;;;5040306;28;20737;-86
2022/03/01 03:35:51;;;;;;;20.52;10.45;;;1.80;99.90;;;;;;5039368;28;20257;-86
2022/03/01 03:38:18;;;;;;;15.65;9.57;;;1.80;99.90;;;;;;5043859;28;20209;-86
2022/03/01 03:40:45;;;;;;;15.68;8.65;;;1.80;99.90;;;;;;5042995;28;20690;-85
2022/03/01 03:43:12;;;;;;;17.83;8.57;;;1.70;99.90;;;;;;5039972;28;20294;-85
2022/03/01 03:45:39;;;;;;;16.80;10.05;;;1.90;99.90;;;;;;5039862;28;20211;-85
2022/03/01 03:48:08;;;;;;;19.50;9.30;;;1.60;99.90;;;;;;5040284;28;20238;-85
2022/03/01 03:50:35;;;;;;;15.80;8.63;;;1.90;99.90;;;;;;5040166;28;20265;-85
2022/03/01 03:53:02;;;;;;;15.88;9.70;;;1.70;99.90;;;;;;5041386;28;20241;-86
2022/03/01 03:55:29;;;;;;;16.95;9.10;;;1.90;99.90;;;;;;5046921;28;20203;-85
2022/03/01 03:57:56;;;;;;;16.08;9.25;;;2.00;99.90;;;;;;5049963;28;20225;-86
2022/03/01 04:00:23;;;;;;;15.15;8.35;;;1.70;99.90;;;;;;5056913;28;20237;-85
2022/03/01 04:02:51;;;;;;;23.23;9.57;;;1.80;99.90;;;;;;5057090;28;20217;-85
2022/03/01 04:05:21;;;;;;;13.48;7.78;;;1.70;99.90;;;;;;5046178;28;20258;-86
2022/03/01 04:07:49;;;;;;;17.92;8.43;;;1.70;99.90;;;;;;5042988;28;20199;-86
2022/03/01 04:10:16;;;;;;;17.42;9.85;;;1.80;99.90;;;;;;5052371;28;20774;-86
2022/03/01 04:12:44;;;;;;;14.55;9.07;;;1.90;99.90;;;;;;5053149;28;20230;-85
2022/03/01 04:15:12;;;;;;;19.25;9.77;;;1.90;99.90;;;;;;5043496;28;20275;-85
2022/03/01 04:17:39;;;;;;;16.60;9.32;;;1.80;99.90;;;;;;5042654;28;20226;-87
2022/03/01 04:20:07;;;;;;;17.05;9.82;;;1.90;99.90;;;;;;5040290;28;20262;-87
2022/03/01 04:22:35;;;;;;;20.58;9.77;;;1.90;99.90;;;;;;5042664;28;20266;-86
2022/03/01 04:25:03;;;;;;;14.48;9.68;;;1.70;99.90;;;;;;5041588;28;20203;-86
2022/03/01 04:27:30;;;;;;;16.35;8.98;;;1.70;99.90;;;;;;5040207;28;20576;-87
2022/03/01 04:29:57;;;;;;;17.65;10.38;;;1.80;99.90;;;;;;5037639;28;20244;-86
2022/03/01 04:32:24;;;;;;;18.05;10.15;;;1.50;99.90;;;;;;5038075;28;20254;-86
2022/03/01 04:34:51;;;;;;;18.63;9.68;;;1.40;99.90;;;;;;5046245;28;20219;-86
2022/03/01 04:37:18;;;;;;;16.35;10.02;;;1.70;99.90;;;;;;5037493;28;20297;-85
2022/03/01 04:39:46;;;;;;;15.40;10.20;;;1.80;99.90;;;;;;5038387;28;20337;-86
2022/03/01 04:42:13;;;;;;;16.90;9.00;;;1.50;99.90;;;;;;5040272;28;20256;-86
2022/03/01 04:44:40;;;;;;;15.13;9.65;;;1.60;99.90;;;;;;5042872;28;20298;-86
2022/03/01 04:47:07;;;;;;;19.05;9.90;;;1.60;99.90;;;;;;5044940;28;20230;-86
2022/03/01 04:49:34;;;;;;;17.15;10.00;;;1.40;99.90;;;;;;5046730;28;20255;-86
2022/03/01 04:52:01;;;;;;;14.32;9.07;;;1.40;99.90;;;;;;5041902;28;20213;-86
2022/03/01 04:54:28;;;;;;;19.42;10.80;;;1.60;99.90;;;;;;5042095;28;20227;-86
2022/03/01 04:56:56;;;;;;;15.88;9.00;;;1.50;99.90;;;;;;5044230;28;20210;-86
2022/03/01 04:59:23;;;;;;;15.27;9.60;;;1.40;99.90;;;;;;5040628;28;20250;-86
2022/03/01 05:01:50;;;;;;;19.40;10.82;;;1.50;99.90;;;;;;5040807;28;20297;-86
2022/03/01 05:04:17;;;;;;;18.35;10.35;;;1.30;99.90;;;;;;5046151;28;20222;-85
2022/03/01 05:06:44;;;;;;;16.23;9.80;;;1.40;99.90;;;;;;5046225;28;20565;-87
2022/03/01 05:09:12;;;;;;;18.65;9.48;;;1.60;99.90;;;;;;5042767;28;20764;-86
2022/03/01 05:11:39;;;;;;;21.80;11.30;;;1.40;99.90;;;;;;5039522;28;20222;-85
2022/03/01 05:14:07;;;;;;;20.58;10.10;;;1.20;99.90;;;;;;5038703;28;20321;-86
2022/03/01 05:16:35;;;;;;;15.20;9.50;;;1.10;99.90;;;;;;5039725;28;20243;-86
2022/03/01 05:19:02;;;;;;;18.33;10.43;;;1.10;99.90;;;;;;5038986;28;20231;-85
2022/03/01 05:21:30;;;;;;;23.10;11.10;;;1.20;99.90;;;;;;5040469;28;20257;-86
2022/03/01 05:23:57;;;;;;;19.20;11.43;;;1.20;99.90;;;;;;5038828;28;20222;-85
2022/03/01 05:26:25;;;;;;;19.20;10.50;;;1.30;99.90;;;;;;5041093;28;20586;-85
2022/03/01 05:28:51;;;;;;;19.77;10.50;;;1.20;99.90;;;;;;5049735;28;20728;-84
2022/03/01 05:31:20;;;;;;;18.15;9.77;;;1.10;99.90;;;;;;5043870;28;20631;-86
2022/03/01 05:33:47;;;;;;;18.23;10.60;;;1.10;99.90;;;;;;5041582;28;20313;-85
2022/03/01 05:36:14;;;;;;;18.70;10.13;;;1.30;99.90;;;;;;5040455;28;20202;-86
2022/03/01 05:38:41;;;;;;;19.30;10.60;;;1.20;99.90;;;;;;5041639;28;20241;-86
2022/03/01 05:41:09;;;;;;;17.95;10.88;;;1.40;99.90;;;;;;5043220;28;20246;-86
2022/03/01 05:43:36;;;;;;;17.33;10.23;;;1.20;99.90;;;;;;5042325;28;20774;-85
2022/03/01 05:46:05;;;;;;;18.25;9.40;;;1.30;99.90;;;;;;5041498;28;20667;-85
2022/03/01 05:48:33;;;;;;;17.08;10.40;;;1.10;99.90;;;;;;5040176;28;20218;-86
2022/03/01 05:51:01;;;;;;;16.25;9.45;;;1.20;99.90;;;;;;5045463;28;20719;-86
2022/03/01 05:53:28;;;;;;;20.33;10.10;;;1.10;99.90;;;;;;5042502;28;20285;-86
2022/03/01 05:55:55;;;;;;;19.75;11.13;;;0.90;99.90;;;;;;5042311;28;20302;-86
2022/03/01 05:58:21;;;;;;;16.52;9.00;;;1.00;99.90;;;;;;5041726;28;20302;-86
2022/03/01 06:00:49;;;;;;;22.38;10.30;;;1.40;99.90;;;;;;5041043;28;20223;-86
2022/03/01 06:03:16;;;;;;;18.13;10.52;;;1.30;99.90;;;;;;5041408;28;20202;-86
2022/03/01 06:05:44;;;;;;;14.40;9.98;;;1.20;99.90;;;;;;5041815;28;20274;-86
2022/03/01 06:08:11;;;;;;;18.17;10.43;;;1.30;99.90;;;;;;5040006;28;20207;-86
2022/03/01 06:10:42;;;;;;;17.65;10.55;;;1.00;99.90;;;;;;5040649;28;20239;-86
2022/03/01 06:13:09;;;;;;;19.00;10.10;;;1.20;99.90;;;;;;5041658;28;20231;-86
2022/03/01 06:15:36;;;;;;;19.10;11.45;;;1.30;99.90;;;;;;5053914;28;20187;-86
2022/03/01 06:18:03;;;;;;;17.42;9.52;;;1.10;99.90;;;;;;5049102;28;20229;-86
2022/03/01 06:20:30;;;;;;;19.17;9.75;;;1.00;99.90;;;;;;5043824;28;20219;-86
2022/03/01 06:22:58;;;;;;;17.45;9.77;;;1.10;99.90;;;;;;5044706;28;20245;-86
2022/03/01 06:25:25;;;;;;;31.75;12.25;;;0.90;99.90;;;;;;5048310;28;20211;-86
2022/03/01 06:27:53;;;;;;;18.50;9.40;;;1.00;99.90;;;;;;5042167;28;20278;-87
2022/03/01 06:30:20;;;;;;;16.83;10.18;;;1.20;99.90;;;;;;5048773;28;20243;-86
2022/03/01 06:32:47;;;;;;;21.00;10.70;;;1.20;99.90;;;;;;5045410;28;20226;-86
2022/03/01 06:35:14;;;;;;;19.95;10.10;;;1.10;99.90;;;;;;5042818;28;20225;-86
2022/03/01 06:37:41;;;;;;;17.67;7.60;;;0.90;99.90;;;;;;5041741;28;20211;-86
2022/03/01 06:40:12;;;;;;;18.15;9.85;;;1.20;99.90;;;;;;5044251;28;20222;-86
2022/03/01 06:42:39;;;;;;;22.15;10.15;;;1.20;99.90;;;;;;5042448;28;20203;-86
2022/03/01 06:45:07;;;;;;;15.73;8.90;;;1.10;99.90;;;;;;5043399;28;20227;-86
2022/03/01 06:47:35;;;;;;;20.95;9.98;;;1.10;99.90;;;;;;5044218;28;20582;-86
2022/03/01 06:50:02;;;;;;;19.02;9.88;;;1.10;99.90;;;;;;5044396;28;20731;-86
2022/03/01 06:52:31;;;;;;;20.45;10.15;;;1.00;99.90;;;;;;5041430;28;20214;-87
2022/03/01 06:54:58;;;;;;;18.70;10.50;;;0.90;99.90;;;;;;5048001;28;20225;-86
2022/03/01 06:57:26;;;;;;;19.80;10.93;;;0.90;99.90;;;;;;5058143;28;20299;-86
2022/03/01 06:59:53;;;;;;;20.88;10.30;;;0.90;99.90;;;;;;5052445;28;20228;-86
2022/03/01 07:02:25;;;;;;;18.23;12.55;;;1.10;99.90;;;;;;5045216;28;20203;-86
2022/03/01 07:04:52;;;;;;;16.77;9.90;;;1.10;99.90;;;;;;5043840;28;20191;-86
2022/03/01 07:07:19;;;;;;;17.23;10.65;;;1.30;99.90;;;;;;5047689;28;20230;-86
2022/03/01 07:09:46;;;;;;;17.52;9.52;;;1.20;99.90;;;;;;5054192;28;20226;-85
2022/03/01 07:12:13;;;;;;;18.20;10.32;;;1.50;99.90;;;;;;5055018;28;20202;-87
2022/03/01 07:14:41;;;;;;;19.02;9.88;;;1.30;99.90;;;;;;5049379;28;20738;-86
2022/03/01 07:17:08;;;;;;;27.80;10.38;;;1.40;99.90;;;;;;5046297;28;20211;-87
2022/03/01 07:19:35;;;;;;;15.52;10.00;;;1.70;99.90;;;;;;5050055;28;20265;-84
2022/03/01 07:22:02;;;;;;;17.15;10.30;;;1.80;99.90;;;;;;5042847;28;20710;-85
2022/03/01 07:24:29;;;;;;;18.85;9.63;;;1.80;99.90;;;;;;5042957;28;20615;-86
2022/03/01 07:26:59;;;;;;;19.05;10.13;;;1.80;99.90;;;;;;5045529;28;20262;-86
2022/03/01 07:31:57;;;;;;;16.77;9.85;;;2.00;99.90;;;;;;5013461;28;20218;-89
2022/03/01 07:34:24;;;;;;;16.25;9.80;;;2.00;99.90;;;;;;5018018;28;20224;-89
2022/03/01 07:36:51;;;;;;;19.52;10.80;;;2.10;99.90;;;;;;5013685;28;20227;-89
2022/03/01 07:39:18;;;;;;;20.70;10.80;;;2.10;99.90;;;;;;5007149;28;20234;-89
2022/03/01 07:41:45;;;;;;;18.92;10.10;;;2.20;99.80;;;;;;5026171;28;20226;-88
2022/03/01 07:44:12;;;;;;;19.92;11.18;;;2.20;99.10;;;;;;5032577;28;20574;-88
2022/03/01 07:46:44;;;;;;;17.67;9.10;;;2.50;98.70;;;;;;5026486;28;20211;-88
2022/03/01 07:49:12;;;;;;;20.58;10.65;;;2.20;96.40;;;;;;5024807;28;20191;-88
2022/03/01 07:51:39;;;;;;;19.35;8.30;;;2.40;95.80;;;;;;5026936;28;20233;-88
2022/03/01 07:54:08;;;;;;;18.40;9.55;;;2.20;96.60;;;;;;5028174;28;20234;-87
2022/03/01 07:56:35;;;;;;;18.90;10.48;;;2.30;94.70;;;;;;5027666;28;20645;-88
2022/03/01 07:59:02;;;;;;;22.08;10.07;;;2.80;95.00;;;;;;5024170;28;20330;-87
2022/03/01 08:01:31;;;;;;;16.45;9.60;;;2.80;95.10;;;;;;5023866;28;20269;-89
2022/03/01 08:06:40;;;;;;;18.60;11.38;;;2.30;93.90;;;;;;5020044;28;20666;-87
2022/03/01 08:09:10;;;;;;;15.35;9.48;;;2.60;94.00;;;;;;5023579;28;20211;-87
2022/03/01 08:11:37;;;;;;;20.13;9.07;;;2.70;93.90;;;;;;5022495;28;20239;-86
2022/03/01 08:14:08;;;;;;;14.55;8.57;;;2.20;93.60;;;;;;5022426;28;20312;-89
2022/03/01 08:16:35;;;;;;;18.92;8.35;;;2.80;93.60;;;;;;5023664;28;20238;-87
2022/03/01 08:19:02;;;;;;;14.95;8.93;;;2.40;93.20;;;;;;5022842;28;20294;-88
2022/03/01 08:21:29;;;;;;;12.43;6.35;;;2.50;93.10;;;;;;5023270;28;20232;-88
2022/03/01 08:23:57;;;;;;;16.60;8.90;;;2.70;92.80;;;;;;5024683;28;20220;-88
2022/03/01 08:26:27;;;;;;;12.43;7.40;;;2.50;92.50;;;;;;5022981;28;20200;-86
2022/03/01 08:28:55;;;;;;;14.93;8.48;;;2.40;92.40;;;;;;5021017;28;20192;-88
2022/03/01 08:31:22;;;;;;;18.55;8.93;;;2.20;92.40;;;;;;5026888;28;20237;-87
2022/03/01 08:33:49;;;;;;;13.40;8.60;;;2.40;92.30;;;;;;5034894;28;20212;-86
2022/03/01 08:36:16;;;;;;;15.70;9.32;;;2.80;92.30;;;;;;5033011;28;20224;-89
2022/03/01 08:38:43;;;;;;;14.80;9.60;;;3.00;92.40;;;;;;5022667;28;20245;-87
2022/03/01 08:41:11;;;;;;;14.27;8.60;;;2.60;91.70;;;;;;5022231;28;20308;-88
2022/03/01 08:43:38;;;;;;;16.73;9.10;;;2.70;91.50;;;;;;5020577;28;20215;-87
2022/03/01 08:46:05;;;;;;;15.95;7.78;;;3.20;91.50;;;;;;5023840;28;20211;-89
2022/03/01 08:48:32;;;;;;;15.68;6.80;;;2.90;90.90;;;;;;5033954;28;20727;-88
2022/03/01 08:50:59;;;;;;;15.48;7.20;;;3.60;91.30;;;;;;5033336;28;20223;-88
2022/03/01 08:53:26;;;;;;;18.15;9.48;;;3.40;90.70;;;;;;5024870;28;20231;-88
2022/03/01 08:55:56;;;;;;;13.98;8.43;;;3.30;90.50;;;;;;5030330;28;20252;-88
2022/03/01 08:58:48;;;;;;;17.65;10.32;;;3.50;90.40;;;;;;5036159;28;20189;-89
2022/03/01 09:02:11;;;;;;;15.45;8.13;;;3.50;90.20;;;;;;5551748;23;20238;-89
2022/03/01 09:05:32;;;;;;;18.85;9.32;;;3.70;90.00;;;;;;5035951;28;20221;-90
2022/03/01 09:08:57;;;;;;;14.98;8.73;;;3.90;89.30;;;;;;5035139;28;20274;-89
2022/03/01 09:29:15;;;;;;;14.20;9.02;;;4.40;85.70;;;;;;4944475;29;20307;-87
2022/03/01 09:32:13;;;;;;;11.18;7.03;;;3.80;83.90;;;;;;4966397;28;20237;-88
2022/03/01 09:34:42;;;;;;;12.50;7.18;;;4.30;84.40;;;;;;5013331;28;20238;-89
2022/03/01 09:37:21;;;;;;;15.70;8.90;;;4.00;83.40;;;;;;5011703;28;20221;-89
2022/03/01 09:39:55;;;;;;;13.68;7.03;;;4.30;83.30;;;;;;5009796;28;20236;-88
2022/03/01 09:42:29;;;;;;;13.73;8.05;;;4.00;82.80;;;;;;5011384;28;20206;-88
2022/03/01 09:45:00;;;;;;;16.00;8.50;;;4.50;83.30;;;;;;5008988;28;20214;-87
2022/03/01 09:47:30;;;;;;;12.50;7.75;;;4.20;83.10;;;;;;5008401;28;20211;-87
2022/03/01 09:49:57;;;;;;;11.73;7.20;;;4.20;82.80;;;;;;5009560;28;20221;-88
2022/03/01 09:52:26;;;;;;;13.73;8.98;;;4.40;82.00;;;;;;5011088;28;20197;-88
2022/03/01 09:54:56;;;;;;;12.20;8.68;;;4.70;82.20;;;;;;5015456;28;20238;-87
2022/03/01 09:57:24;;;;;;;12.30;7.80;;;4.80;82.10;;;;;;5011484;28;20238;-88
2022/03/01 10:00:06;;;;;;;13.90;8.40;;;4.90;81.20;;;;;;5007938;28;20261;-88
2022/03/01 10:02:37;;;;;;;19.33;11.07;;;5.00;81.20;;;;;;5006977;28;20215;-88
2022/03/01 10:05:16;;;;;;;15.02;8.02;;;4.90;79.40;;;;;;5010060;28;20290;-88
2022/03/01 10:07:58;;;;;;;15.32;9.30;;;5.10;80.00;;;;;;5010428;28;20222;-87
2022/03/01 10:10:25;;;;;;;18.27;8.50;;;5.20;79.80;;;;;;5007914;28;20234;-87
2022/03/01 10:12:57;;;;;;;16.15;9.68;;;5.10;78.10;;;;;;5014040;28;20218;-88
2022/03/01 10:15:29;;;;;;;13.95;7.65;;;5.10;77.80;;;;;;5012904;28;20742;-88
2022/03/01 10:18:05;;;;;;;15.13;8.73;;;5.50;77.50;;;;;;5014700;28;20184;-86
2022/03/01 10:20:32;;;;;;;14.55;7.82;;;5.40;76.70;;;;;;5018484;28;20237;-88
2022/03/01 10:23:20;;;;;;;12.75;7.55;;;5.10;75.40;;;;;;5015176;28;20219;-86
2022/03/01 10:25:57;;;;;;;15.70;9.00;;;5.50;76.00;;;;;;5017816;28;20239;-86
2022/03/01 10:28:34;;;;;;;15.18;8.70;;;5.60;76.20;;;;;;5015253;28;20278;-88
2022/03/01 10:31:11;;;;;;;12.77;8.70;;;5.60;75.40;;;;;;5015574;28;20233;-87
2022/03/01 10:33:43;;;;;;;10.18;5.45;;;5.70;75.10;;;;;;5010205;28;20187;-89
2022/03/01 10:36:22;;;;;;;15.18;7.97;;;5.70;73.90;;;;;;5009390;28;20226;-88
2022/03/01 10:38:55;;;;;;;14.13;7.70;;;5.60;73.90;;;;;;5010245;28;20209;-89
2022/03/01 10:41:25;;;;;;;13.60;8.52;;;5.60;74.20;;;;;;5013415;28;20239;-87
2022/03/01 10:44:03;;;;;;;13.90;9.35;;;5.60;73.50;;;;;;5009706;28;20226;-87
2022/03/01 10:46:39;;;;;;;15.02;8.52;;;5.80;73.60;;;;;;5013538;28;20198;-87
2022/03/01 10:49:18;;;;;;;14.48;8.60;;;5.90;73.20;;;;;;5010708;28;20214;-89
2022/03/01 10:51:50;;;;;;;12.13;6.65;;;5.90;72.30;;;;;;5008782;28;20214;-88
2022/03/01 10:54:38;;;;;;;15.63;8.27;;;5.60;71.40;;;;;;5009906;28;20295;-90
2022/03/01 10:57:29;;;;;;;13.57;9.02;;;5.90;72.30;;;;;;5013805;28;20207;-88
2022/03/01 11:00:02;;;;;;;16.25;9.88;;;6.00;72.30;;;;;;5009383;28;20231;-87
2022/03/01 11:02:30;;;;;;;13.98;8.45;;;6.10;71.80;;;;;;5008660;28;20263;-89
2022/03/01 11:05:03;;;;;;;11.45;7.50;;;6.20;71.40;;;;;;5013623;28;20241;-88
2022/03/01 11:07:33;;;;;;;13.57;7.88;;;6.30;70.50;;;;;;5017713;28;20657;-87
2022/03/01 11:10:07;;;;;;;14.88;8.73;;;6.30;70.20;;;;;;5013995;28;20242;-87
2022/03/01 11:12:35;;;;;;;11.05;7.97;;;6.30;70.30;;;;;;5012889;28;20234;-88
2022/03/01 11:15:10;;;;;;;15.95;8.15;;;6.30;70.00;;;;;;5010174;28;20251;-88
2022/03/01 11:17:51;;;;;;;12.63;8.02;;;6.30;69.30;;;;;;5010366;28;20209;-89
2022/03/01 11:20:23;;;;;;;24.95;9.52;;;6.40;69.30;;;;;;5010513;28;20263;-89
2022/03/01 11:22:53;;;;;;;13.48;8.80;;;6.50;69.30;;;;;;5010932;28;20219;-86
2022/03/01 11:25:25;;;;;;;11.55;7.35;;;6.70;69.10;;;;;;5008092;28;20188;-86
2022/03/01 11:28:07;;;;;;;12.20;7.70;;;6.80;68.10;;;;;;5008949;28;20200;-87
2022/03/01 11:30:44;;;;;;;14.68;8.85;;;7.00;66.40;;;;;;5010757;28;20283;-86
2022/03/01 11:33:15;;;;;;;12.73;8.00;;;7.00;65.80;;;;;;5007578;28;20224;-86
2022/03/01 11:35:56;;;;;;;10.40;7.18;;;7.00;64.60;;;;;;5009157;28;20219;-86
2022/03/01 11:38:30;;;;;;;12.23;7.90;;;6.60;64.40;;;;;;5008319;28;20228;-86
2022/03/01 11:41:10;;;;;;;12.52;8.32;;;6.70;65.40;;;;;;5008867;28;20236;-84
2022/03/01 11:43:39;;;;;;;12.52;8.43;;;7.00;65.00;;;;;;5007659;28;20195;-86
2022/03/01 11:46:22;;;;;;;12.57;7.47;;;7.00;64.00;;;;;;5010281;28;20563;-86
2022/03/01 11:48:57;;;;;;;11.55;7.70;;;7.00;64.10;;;;;;5012604;28;20207;-87
2022/03/01 11:51:39;;;;;;;12.07;7.82;;;7.00;63.70;;;;;;5012831;28;20241;-87
2022/03/01 11:54:09;;;;;;;12.52;8.30;;;7.10;63.50;;;;;;5009100;28;20283;-88
2022/03/01 11:56:37;;;;;;;11.60;8.15;;;7.30;63.50;;;;;;5013943;28;20261;-86
2022/03/01 11:59:07;;;;;;;14.18;9.57;;;7.40;62.50;;;;;;5010767;28;20196;-86
2022/03/01 12:01:35;;;;;;;16.77;9.88;;;7.50;61.20;;;;;;5007091;28;20228;-85
2022/03/01 12:04:04;;;;;;;12.23;8.40;;;7.40;60.30;;;;;;5013722;28;20208;-87
2022/03/01 12:06:39;;;;;;;11.70;8.40;;;7.50;60.00;;;;;;5016962;28;20208;-86
2022/03/01 12:09:08;;;;;;;12.93;7.80;;;7.50;59.50;;;;;;5017684;28;20202;-86
2022/03/01 12:11:37;;;;;;;10.13;7.15;;;7.60;60.20;;;;;;5015451;28;20220;-87
2022/03/01 12:14:07;;;;;;;12.52;8.20;;;7.70;59.90;;;;;;5015415;28;20196;-86
2022/03/01 12:16:35;;;;;;;11.33;7.33;;;8.00;58.10;;;;;;5016964;28;20216;-86
2022/03/01 12:19:16;;;;;;;11.68;7.32;;;8.10;57.90;;;;;;5010616;28;20564;-85
2022/03/01 12:21:50;;;;;;;13.00;6.30;;;8.30;56.10;;;;;;5006490;28;20226;-86
2022/03/01 12:24:19;;;;;;;11.23;6.77;;;8.30;55.50;;;;;;5005636;28;20355;-87
2022/03/01 12:29:36;;;;;;;9.38;6.13;;;7.90;54.50;;;;;;5000262;28;21909;-88
2022/03/01 12:32:06;;;;;;;9.93;6.60;;;7.80;54.90;;;;;;5003899;28;20290;-87
2022/03/01 12:34:36;;;;;;;12.57;8.40;;;7.80;55.40;;;;;;5006642;28;20208;-87
2022/03/01 12:37:06;;;;;;;11.33;8.27;;;7.70;56.00;;;;;;5004610;28;20771;-87
2022/03/01 12:39:33;;;;;;;11.45;6.85;;;7.70;55.10;;;;;;5005518;28;20881;-87
2022/03/01 12:42:01;;;;;;;12.83;8.27;;;7.80;56.00;;;;;;5005909;28;20210;-88
2022/03/01 12:44:29;;;;;;;11.25;7.45;;;7.90;56.40;;;;;;5005097;28;20496;-89
2022/03/01 12:46:57;;;;;;;10.70;7.30;;;7.90;55.40;;;;;;5008512;28;20195;-86
2022/03/01 12:49:24;;;;;;;11.68;6.97;;;7.80;54.70;;;;;;5020574;28;20195;-87
2022/03/01 12:51:54;;;;;;;10.20;7.05;;;7.90;54.40;;;;;;5020956;28;20192;-86
2022/03/01 12:54:25;;;;;;;9.80;5.93;;;7.80;54.40;;;;;;5008389;28;20208;-87
2022/03/01 12:56:57;;;;;;;14.02;7.10;;;7.90;54.10;;;;;;5007390;28;20284;-86
2022/03/01 12:59:26;;;;;;;9.98;6.65;;;7.80;53.80;;;;;;5005218;28;20189;-87
2022/03/01 13:02:15;;;;;;;16.27;7.37;;;7.90;54.40;;;;;;5006537;28;20212;-87
2022/03/01 13:04:43;;;;;;;13.40;6.57;;;8.00;54.00;;;;;;5007638;28;20447;-87
2022/03/01 13:07:10;;;;;;;14.00;9.18;;;8.10;54.30;;;;;;5011479;28;20208;-89
2022/03/01 13:09:39;;;;;;;12.75;7.40;;;8.10;54.40;;;;;;5013176;28;20220;-88
2022/03/01 13:12:08;;;;;;;12.73;8.37;;;8.30;54.30;;;;;;5017230;28;20204;-88
2022/03/01 13:14:36;;;;;;;10.60;5.43;;;8.30;53.90;;;;;;5011716;28;20436;-86
2022/03/01 13:17:05;;;;;;;12.73;6.93;;;8.40;53.20;;;;;;5011946;28;20471;-88
2022/03/01 13:19:42;;;;;;;17.77;10.50;;;8.40;52.40;;;;;;5009163;28;20451;-87
2022/03/01 13:22:11;;;;;;;12.27;8.35;;;8.40;52.80;;;;;;5006846;28;20497;-87
2022/03/01 13:24:43;;;;;;;10.93;7.30;;;8.40;53.40;;;;;;5008776;28;20611;-87